Strona główna
METAR-TAF:

METAR-TAF

Lotnisko :

Port lotniczy Czyta

Czyta, Rosja

Szerokość geograficzna: 52-05N, Długość geograficzna: 113-29E, wysokość: 685 m

Aktualna obserwacja pogody

Raport powstał 32 minut temu, godzina 12:00 UTC
Wiatr 4 kt od północny zachód
Temperatura -14°C
Wilgotność 66%
Ciśnienie 1013 hPa
Widzialność 10 km lub więcej

METAR: UIAA 181200Z 31002MPS 9999 NSC M14/M19 Q1013 R29/410150 NOSIG RMK QFE701/0935

czas: 21:32 (12:32 UTC)

Prognoza

Raport powstał 1 godzina i 32 minut temu, godzina 11:00 UTC
Prognoza ważna od 18 godzina 12 UTC do 19 godzina 12 UTC
Wiatr 6 kt od północno-północny wschód
Widzialność 10 km lub więcej
Przejściowo
od 18 godzina 18 UTC do 19 godzina 02 UTC
Widzialność: 3100 m
zamglenie

TAF: UIAA 181100Z 1812/1912 02003MPS 9999 NSC TEMPO 1818/1902 3100 BR

Obserwacja i prognoza pogody dla ponad 4000 lotnisk (raport METAR i TAF).

Dostępne stacje oznaczono żółtymi i czerwonymi punktami na mapie.

Najedź kursorem aby zobaczyć nazwę stacji.

Kliknij aby zobaczyć obserwacje i prognozy pogody.

Aby zmienić mapę: kliknij na zielony przycisk z czarnym krzyżykiem, aby powiększyć; na zielony przycisk z myślnikiem, aby pomniejszyć; na zielone strzałki, aby przejść do map sąsiednich.


METAR-TAF: